createdAt,value
2016-02-24T00:00:55.270Z,1002.31
2016-02-24T00:01:55.303Z,1002.3
2016-02-24T00:02:55.306Z,1002.31
2016-02-24T00:03:55.325Z,1002.32
2016-02-24T00:04:55.344Z,1002.33
2016-02-24T00:05:55.346Z,1002.33
2016-02-24T00:06:55.364Z,1002.31
2016-02-24T00:07:55.383Z,1002.35
2016-02-24T00:08:55.400Z,1002.36
2016-02-24T00:09:55.419Z,1002.33
2016-02-24T00:10:55.437Z,1002.27
2016-02-24T00:11:55.440Z,1002.32
2016-02-24T00:12:55.457Z,1002.36
2016-02-24T00:13:55.477Z,1002.32
2016-02-24T00:14:55.495Z,1002.33
2016-02-24T00:15:55.512Z,1002.36
2016-02-24T00:16:55.531Z,1002.35
2016-02-24T00:17:55.534Z,1002.36
2016-02-24T00:18:55.551Z,1002.33
2016-02-24T00:19:55.571Z,1002.37
2016-02-24T00:20:55.589Z,1002.38
2016-02-24T00:21:55.607Z,1002.35
2016-02-24T00:22:55.625Z,1002.29
2016-02-24T00:23:55.629Z,1002.32
2016-02-24T00:24:55.647Z,1002.35
2016-02-24T00:25:55.665Z,1002.29
2016-02-24T00:26:55.684Z,1002.34
2016-02-24T00:27:55.701Z,1002.3
2016-02-24T00:28:55.720Z,1002.33
2016-02-24T00:29:55.739Z,1002.34
2016-02-24T00:30:55.741Z,1002.3
2016-02-24T00:31:55.759Z,1002.28
2016-02-24T00:32:55.778Z,1002.3
2016-02-24T00:33:55.796Z,1002.24
2016-02-24T00:34:55.813Z,1002.24
2016-02-24T00:35:55.822Z,1002.23
2016-02-24T00:36:55.840Z,1002.26
2016-02-24T00:37:55.858Z,1002.26
2016-02-24T00:38:55.892Z,1002.25
2016-02-24T00:39:55.895Z,1002.28
2016-02-24T00:40:55.898Z,1002.28
2016-02-24T00:41:55.931Z,1002.3
2016-02-24T00:42:55.934Z,1002.27
2016-02-24T00:43:55.952Z,1002.31
2016-02-24T00:44:55.971Z,1002.27
2016-02-24T00:45:55.974Z,1002.29
2016-02-24T00:46:55.992Z,1002.22
2016-02-24T00:47:56.010Z,1002.28
2016-02-24T00:48:56.029Z,1002.29
2016-02-24T00:49:56.047Z,1002.28
2016-02-24T00:50:56.065Z,1002.28
2016-02-24T00:51:56.083Z,1002.31
2016-02-24T00:52:56.087Z,1002.33
2016-02-24T00:53:56.104Z,1002.33
2016-02-24T00:54:56.123Z,1002.32
2016-02-24T00:55:56.141Z,1002.34
2016-02-24T00:56:56.159Z,1002.36
2016-02-24T00:57:56.161Z,1002.39
2016-02-24T00:58:56.181Z,1002.42
2016-02-24T00:59:56.199Z,1002.4
2016-02-24T01:00:56.216Z,1002.41
2016-02-24T01:01:56.236Z,1002.44
2016-02-24T01:02:56.253Z,1002.43
2016-02-24T01:03:56.272Z,1002.44
2016-02-24T01:04:56.275Z,1002.48
2016-02-24T01:05:56.294Z,1002.47
2016-02-24T01:06:56.316Z,1002.49
2016-02-24T01:07:56.335Z,1002.49
2016-02-24T01:08:56.337Z,1002.5
2016-02-24T01:09:56.355Z,1002.47
2016-02-24T01:10:56.374Z,1002.49
2016-02-24T01:11:56.392Z,1002.52
2016-02-24T01:12:56.410Z,1002.54
2016-02-24T01:13:56.428Z,1002.57
2016-02-24T01:14:56.448Z,1002.55
2016-02-24T01:15:56.450Z,1002.59
2016-02-24T01:16:56.467Z,1002.56
2016-02-24T01:17:56.486Z,1002.58
2016-02-24T01:18:56.504Z,1002.55
2016-02-24T01:19:56.523Z,1002.6
2016-02-24T01:20:56.525Z,1002.59
2016-02-24T01:21:56.544Z,1002.57
2016-02-24T01:22:56.562Z,1002.6
2016-02-24T01:23:56.597Z,1002.61
2016-02-24T01:24:56.599Z,1002.57
2016-02-24T01:25:56.617Z,1002.54
2016-02-24T01:26:56.619Z,1002.61
2016-02-24T01:27:56.639Z,1002.65
2016-02-24T01:28:56.672Z,1002.66
2016-02-24T01:29:56.675Z,1002.65
2016-02-24T01:30:56.693Z,1002.64
2016-02-24T01:31:56.696Z,1002.66
2016-02-24T01:32:56.714Z,1002.63
2016-02-24T01:33:56.733Z,1002.61
2016-02-24T01:34:56.751Z,1002.69
2016-02-24T01:35:56.769Z,1002.67
2016-02-24T01:36:56.802Z,1002.64
2016-02-24T01:37:56.791Z,1002.68
2016-02-24T01:38:56.808Z,1002.65
2016-02-24T01:39:56.827Z,1002.64
2016-02-24T01:40:56.845Z,1002.66
2016-02-24T01:41:56.863Z,1002.66
2016-02-24T01:42:56.881Z,1002.66
2016-02-24T01:43:56.885Z,1002.68
2016-02-24T01:44:56.903Z,1002.64
2016-02-24T01:45:56.920Z,1002.66
2016-02-24T01:46:56.939Z,1002.71
2016-02-24T01:47:56.957Z,1002.68
2016-02-24T01:48:56.960Z,1002.66
2016-02-24T01:49:56.978Z,1002.68
2016-02-24T01:50:56.997Z,1002.71
2016-02-24T01:51:57.015Z,1002.72
2016-02-24T01:52:57.034Z,1002.7
2016-02-24T01:53:57.053Z,1002.66
2016-02-24T01:54:57.055Z,1002.66
2016-02-24T01:55:57.072Z,1002.67
2016-02-24T01:56:57.092Z,1002.68
2016-02-24T01:57:57.109Z,1002.66
2016-02-24T01:58:57.128Z,1002.64
2016-02-24T01:59:57.147Z,1002.63
2016-02-24T02:00:57.149Z,1002.65
2016-02-24T02:01:57.167Z,1002.67
2016-02-24T02:02:57.185Z,1002.67
2016-02-24T02:03:57.204Z,1002.66
2016-02-24T02:04:57.221Z,1002.67
2016-02-24T02:05:57.240Z,1002.66
2016-02-24T02:06:57.243Z,1002.67
2016-02-24T02:07:57.261Z,1002.64
2016-02-24T02:08:57.280Z,1002.61
2016-02-24T02:09:57.298Z,1002.63
2016-02-24T02:10:57.332Z,1002.66
2016-02-24T02:11:57.335Z,1002.66
2016-02-24T02:12:57.338Z,1002.62
2016-02-24T02:13:57.356Z,1002.69
2016-02-24T02:14:57.373Z,1002.68
2016-02-24T02:15:57.393Z,1002.66
2016-02-24T02:16:57.410Z,1002.72
2016-02-24T02:17:57.429Z,1002.71
2016-02-24T02:18:57.432Z,1002.71
2016-02-24T02:19:57.450Z,1002.69
2016-02-24T02:20:57.468Z,1002.7
2016-02-24T02:21:57.487Z,1002.7
2016-02-24T02:22:57.505Z,1002.71
2016-02-24T02:23:57.508Z,1002.71
2016-02-24T02:24:57.525Z,1002.71
2016-02-24T02:25:57.545Z,1002.71
2016-02-24T02:26:57.562Z,1002.68
2016-02-24T02:27:57.581Z,1002.74
2016-02-24T02:28:57.600Z,1002.71
2016-02-24T02:29:57.603Z,1002.75
2016-02-24T02:30:57.620Z,1002.72
2016-02-24T02:31:57.639Z,1002.74
2016-02-24T02:32:57.689Z,1002.74
2016-02-24T02:33:57.675Z,1002.74
2016-02-24T02:34:57.678Z,1002.71
2016-02-24T02:35:57.696Z,1002.72
2016-02-24T02:36:57.714Z,1002.71
2016-02-24T02:37:57.732Z,1002.74
2016-02-24T02:38:57.751Z,1002.73
2016-02-24T02:39:57.754Z,1002.78
2016-02-24T02:40:57.772Z,1002.79
2016-02-24T02:41:57.790Z,1002.82
2016-02-24T02:42:57.840Z,1002.82
2016-02-24T02:43:57.827Z,1002.82
2016-02-24T02:44:57.845Z,1002.84
2016-02-24T02:45:57.848Z,1002.86
2016-02-24T02:46:57.866Z,1002.82
2016-02-24T02:47:57.901Z,1002.9
2016-02-24T02:48:57.903Z,1002.95
2016-02-24T02:49:57.921Z,1002.92
2016-02-24T02:50:57.923Z,1002.95
2016-02-24T02:51:57.959Z,1002.95
2016-02-24T02:52:57.961Z,1002.94
2016-02-24T02:53:57.978Z,1002.95
2016-02-24T02:54:57.998Z,1002.99
2016-02-24T02:55:58.015Z,1002.98
2016-02-24T02:56:58.018Z,1002.95
2016-02-24T02:57:58.037Z,1002.91
2016-02-24T02:58:58.055Z,1002.96
2016-02-24T02:59:58.072Z,1002.99
2016-02-24T03:00:58.091Z,1002.95
2016-02-24T03:01:58.110Z,1002.99
2016-02-24T03:02:58.113Z,1003
2016-02-24T03:03:58.146Z,1003
2016-02-24T03:04:58.149Z,1003.03
2016-02-24T03:05:58.167Z,1002.99
2016-02-24T03:06:58.185Z,1003
2016-02-24T03:07:58.189Z,1003.02
2016-02-24T03:08:58.207Z,1003.04
2016-02-24T03:09:58.257Z,1003.01
2016-02-24T03:10:58.244Z,1003.04
2016-02-24T03:11:58.262Z,1003.07
2016-02-24T03:12:58.296Z,1003.08
2016-02-24T03:13:58.299Z,1003.1
2016-02-24T03:14:58.301Z,1003.07
2016-02-24T03:15:58.319Z,1003.15
2016-02-24T03:16:58.339Z,1003.12
2016-02-24T03:17:58.358Z,1003.11
2016-02-24T03:18:58.360Z,1003.1
2016-02-24T03:19:58.377Z,1003.11
2016-02-24T03:20:58.397Z,1003.08
2016-02-24T03:21:58.415Z,1003.09
2016-02-24T03:22:58.433Z,1003.07
2016-02-24T03:23:58.435Z,1003.06
2016-02-24T03:24:58.454Z,1003.08
2016-02-24T03:25:58.471Z,1003.1
2016-02-24T03:26:58.491Z,1003.08
2016-02-24T03:27:58.509Z,1003.07
2016-02-24T03:28:58.527Z,1003.15
2016-02-24T03:29:58.529Z,1003.1
2016-02-24T03:30:58.548Z,1003.14
2016-02-24T03:31:58.567Z,1003.16
2016-02-24T03:32:58.584Z,1003.15
2016-02-24T03:33:58.587Z,1003.17
2016-02-24T03:34:58.621Z,1003.2
2016-02-24T03:35:58.623Z,1003.19
2016-02-24T03:36:58.642Z,1003.19
2016-02-24T03:37:58.661Z,1003.24
2016-02-24T03:38:58.679Z,1003.23
2016-02-24T03:39:58.695Z,1003.22
2016-02-24T03:40:58.686Z,1003.23
2016-02-24T03:41:58.692Z,1003.28
2016-02-24T03:42:58.697Z,1003.24
2016-02-24T03:43:58.704Z,1003.22
2016-02-24T03:44:58.695Z,1003.27
2016-02-24T03:45:58.726Z,1003.27
2016-02-24T03:46:58.724Z,1003.27
2016-02-24T03:47:58.738Z,1003.29
2016-02-24T03:48:58.752Z,1003.3
2016-02-24T03:49:58.766Z,1003.32
2016-02-24T03:50:58.767Z,1003.31
2016-02-24T03:51:58.785Z,1003.32
2016-02-24T03:52:58.800Z,1003.32
2016-02-24T03:53:58.818Z,1003.36
2016-02-24T03:54:58.834Z,1003.31
2016-02-24T03:55:58.852Z,1003.34
2016-02-24T03:56:58.855Z,1003.33
2016-02-24T03:57:58.872Z,1003.39
2016-02-24T03:58:58.905Z,1003.39
2016-02-24T03:59:58.907Z,1003.39
2016-02-24T04:00:58.910Z,1003.38
2016-02-24T04:01:58.928Z,1003.41
2016-02-24T04:02:58.946Z,1003.35
2016-02-24T04:03:58.964Z,1003.38
2016-02-24T04:04:58.988Z,1003.39
2016-02-24T04:05:58.990Z,1003.35
2016-02-24T04:06:59.009Z,1003.35
2016-02-24T04:07:59.028Z,1003.36
2016-02-24T04:08:59.045Z,1003.42
2016-02-24T04:09:59.079Z,1003.37
2016-02-24T04:10:59.067Z,1003.39
2016-02-24T04:11:59.084Z,1003.41
2016-02-24T04:12:59.103Z,1003.44
2016-02-24T04:13:59.122Z,1003.42
2016-02-24T04:14:59.124Z,1003.44
2016-02-24T04:15:59.142Z,1003.46
2016-02-24T04:16:59.161Z,1003.45
2016-02-24T04:17:59.179Z,1003.44
2016-02-24T04:18:59.213Z,1003.43
2016-02-24T04:19:59.199Z,1003.47
2016-02-24T04:20:59.219Z,1003.46
2016-02-24T04:21:59.236Z,1003.46
2016-02-24T04:22:59.255Z,1003.45
2016-02-24T04:23:59.274Z,1003.43
2016-02-24T04:24:59.276Z,1003.43
2016-02-24T04:25:59.294Z,1003.44
2016-02-24T04:26:59.313Z,1003.46
2016-02-24T04:27:59.332Z,1003.45
2016-02-24T04:28:59.349Z,1003.45
2016-02-24T04:29:59.351Z,1003.5
2016-02-24T04:30:59.371Z,1003.5
2016-02-24T04:31:59.388Z,1003.48
2016-02-24T04:32:59.407Z,1003.48
2016-02-24T04:33:59.426Z,1003.48
2016-02-24T04:34:59.428Z,1003.48
2016-02-24T04:35:59.445Z,1003.51
2016-02-24T04:36:59.465Z,1003.47
2016-02-24T04:37:59.483Z,1003.46
2016-02-24T04:38:59.486Z,1003.48
2016-02-24T04:39:59.503Z,1003.45
2016-02-24T04:40:59.522Z,1003.48
2016-02-24T04:41:59.540Z,1003.48
2016-02-24T04:42:59.559Z,1003.43
2016-02-24T04:43:59.562Z,1003.41
2016-02-24T04:44:59.580Z,1003.43
2016-02-24T04:45:59.597Z,1003.48
2016-02-24T04:46:59.617Z,1003.47
2016-02-24T04:47:59.635Z,1003.41
2016-02-24T04:48:59.638Z,1003.41
2016-02-24T04:49:59.686Z,1003.42
2016-02-24T04:50:59.674Z,1003.42
2016-02-24T04:51:59.692Z,1003.44
2016-02-24T04:52:59.710Z,1003.46
2016-02-24T04:53:59.718Z,1003.47
2016-02-24T04:54:59.736Z,1003.47
2016-02-24T04:55:59.753Z,1003.51
2016-02-24T04:56:59.756Z,1003.47
2016-02-24T04:57:59.775Z,1003.49
2016-02-24T04:58:59.793Z,1003.49
2016-02-24T04:59:59.811Z,1003.52
2016-02-24T05:00:59.830Z,1003.49
2016-02-24T05:01:59.848Z,1003.51
2016-02-24T05:02:59.850Z,1003.47
2016-02-24T05:03:59.869Z,1003.46
2016-02-24T05:04:59.888Z,1003.46
2016-02-24T05:05:59.905Z,1003.45
2016-02-24T05:06:59.908Z,1003.47
2016-02-24T05:07:59.927Z,1003.47
2016-02-24T05:08:59.945Z,1003.49
2016-02-24T05:09:59.963Z,1003.47
2016-02-24T05:10:59.966Z,1003.49
2016-02-24T05:11:59.985Z,1003.53
2016-02-24T05:13:00.002Z,1003.51
2016-02-24T05:14:00.021Z,1003.49
2016-02-24T05:15:00.040Z,1003.44
2016-02-24T05:16:00.043Z,1003.5
2016-02-24T05:17:00.060Z,1003.49
2016-02-24T05:18:00.079Z,1003.52
2016-02-24T05:19:00.097Z,1003.49
2016-02-24T05:20:00.115Z,1003.48
2016-02-24T05:21:00.117Z,1003.46
2016-02-24T05:22:00.152Z,1003.48
2016-02-24T05:23:00.154Z,1003.46
2016-02-24T05:24:00.173Z,1003.52
2016-02-24T05:25:00.192Z,1003.48
2016-02-24T05:26:00.209Z,1003.53
2016-02-24T05:27:00.212Z,1003.53
2016-02-24T05:28:00.231Z,1003.49
2016-02-24T05:29:00.249Z,1003.5
2016-02-24T05:30:00.267Z,1003.5
2016-02-24T05:31:00.269Z,1003.48
2016-02-24T05:32:00.288Z,1003.49
2016-02-24T05:33:00.306Z,1003.49
2016-02-24T05:34:00.324Z,1003.48
2016-02-24T05:35:00.328Z,1003.47
2016-02-24T05:36:00.361Z,1003.5
2016-02-24T05:37:00.363Z,1003.44
2016-02-24T05:38:00.383Z,1003.49
2016-02-24T05:39:00.401Z,1003.49
2016-02-24T05:40:00.404Z,1003.5
2016-02-24T05:41:00.421Z,1003.45
2016-02-24T05:42:00.440Z,1003.5
2016-02-24T05:43:00.458Z,1003.45
2016-02-24T05:44:00.476Z,1003.51
2016-02-24T05:45:00.480Z,1003.53
2016-02-24T05:46:00.498Z,1003.52
2016-02-24T05:47:00.515Z,1003.51
2016-02-24T05:48:00.534Z,1003.53
2016-02-24T05:49:00.537Z,1003.56
2016-02-24T05:50:00.587Z,1003.54
2016-02-24T05:51:00.573Z,1003.57
2016-02-24T05:52:00.592Z,1003.55
2016-02-24T05:53:00.610Z,1003.59
2016-02-24T05:54:00.629Z,1003.52
2016-02-24T05:55:00.648Z,1003.53
2016-02-24T05:56:00.650Z,1003.56
2016-02-24T05:57:00.668Z,1003.56
2016-02-24T05:58:00.686Z,1003.6
2016-02-24T05:59:00.705Z,1003.58
2016-02-24T06:00:00.707Z,1003.6
2016-02-24T06:01:00.725Z,1003.59
2016-02-24T06:02:00.743Z,1003.59
2016-02-24T06:03:00.747Z,1003.64
2016-02-24T06:04:00.780Z,1003.62
2016-02-24T06:05:00.783Z,1003.61
2016-02-24T06:06:00.802Z,1003.6
2016-02-24T06:07:00.819Z,1003.61
2016-02-24T06:08:00.838Z,1003.62
2016-02-24T06:09:00.842Z,1003.59
2016-02-24T06:10:00.859Z,1003.59
2016-02-24T06:11:00.862Z,1003.63
2016-02-24T06:12:00.897Z,1003.6
2016-02-24T06:13:00.900Z,1003.65
2016-02-24T06:14:00.917Z,1003.66
2016-02-24T06:15:00.936Z,1003.68
2016-02-24T06:16:00.955Z,1003.71
2016-02-24T06:17:00.972Z,1003.73
2016-02-24T06:18:00.991Z,1003.71
2016-02-24T06:19:00.994Z,1003.74
2016-02-24T06:20:01.012Z,1003.79
2016-02-24T06:21:01.014Z,1003.76
2016-02-24T06:22:01.049Z,1003.78
2016-02-24T06:23:01.052Z,1003.81
2016-02-24T06:24:01.069Z,1003.81
2016-02-24T06:25:01.072Z,1003.85
2016-02-24T06:26:01.090Z,1003.88
2016-02-24T06:27:01.109Z,1003.89
2016-02-24T06:28:01.126Z,1003.9
2016-02-24T06:29:01.145Z,1003.93
2016-02-24T06:30:01.148Z,1003.94
2016-02-24T06:31:01.166Z,1003.92
2016-02-24T06:32:01.185Z,1003.97
2016-02-24T06:33:01.203Z,1003.94
2016-02-24T06:34:01.221Z,1003.97
2016-02-24T06:35:01.223Z,1004
2016-02-24T06:36:01.243Z,1003.94
2016-02-24T06:37:01.261Z,1003.97
2016-02-24T06:38:01.279Z,1004.02
2016-02-24T06:39:01.297Z,1004
2016-02-24T06:40:01.300Z,1004.03
2016-02-24T06:41:01.318Z,1003.99
2016-02-24T06:42:01.336Z,1004
2016-02-24T06:43:01.340Z,1004
2016-02-24T06:44:01.388Z,1003.99
2016-02-24T06:45:01.400Z,1004.02
2016-02-24T06:46:01.387Z,1004.03
2016-02-24T06:47:01.820Z,1004.01
2016-02-24T06:48:01.407Z,1004
2016-02-24T06:49:01.441Z,1004
2016-02-24T06:50:01.444Z,1004.04
2016-02-24T06:51:01.447Z,1004.06
2016-02-24T06:52:01.465Z,1004.08
2016-02-24T06:53:01.483Z,1004.08
2016-02-24T06:54:01.502Z,1004.1
2016-02-24T06:55:01.521Z,1004.08
2016-02-24T06:56:01.538Z,1004.17
2016-02-24T06:57:01.540Z,1004.1
2016-02-24T06:58:01.560Z,1004.1
2016-02-24T06:59:01.577Z,1004.12
2016-02-24T07:00:01.580Z,1004.19
2016-02-24T07:01:01.615Z,1004.15
2016-02-24T07:02:01.618Z,1004.18
2016-02-24T07:03:01.635Z,1004.18
2016-02-24T07:04:01.653Z,1004.17
2016-02-24T07:05:01.673Z,1004.18
2016-02-24T07:06:01.675Z,1004.18
2016-02-24T07:07:01.692Z,1004.18
2016-02-24T07:08:01.712Z,1004.21
2016-02-24T07:09:01.729Z,1004.22
2016-02-24T07:10:01.736Z,1004.23
2016-02-24T07:11:01.756Z,1004.26
2016-02-24T07:12:01.774Z,1004.31
2016-02-24T07:13:01.777Z,1004.28
2016-02-24T07:14:01.794Z,1004.25
2016-02-24T07:15:01.813Z,1004.35
2016-02-24T07:16:01.831Z,1004.3
2016-02-24T07:17:01.849Z,1004.36
2016-02-24T07:18:01.853Z,1004.37
2016-02-24T07:19:01.886Z,1004.34
2016-02-24T07:20:01.888Z,1004.35
2016-02-24T07:21:01.907Z,1004.35
2016-02-24T07:22:01.910Z,1004.37
2016-02-24T07:23:01.929Z,1004.32
2016-02-24T07:24:01.946Z,1004.32
2016-02-24T07:25:01.965Z,1004.33
2016-02-24T07:26:01.983Z,1004.33
2016-02-24T07:27:01.985Z,1004.33
2016-02-24T07:28:02.005Z,1004.31
2016-02-24T07:29:02.023Z,1004.36
2016-02-24T07:30:02.041Z,1004.33
2016-02-24T07:31:02.059Z,1004.35
2016-02-24T07:32:02.062Z,1004.4
2016-02-24T07:33:02.081Z,1004.37
2016-02-24T07:34:02.098Z,1004.32
2016-02-24T07:35:02.132Z,1004.33
2016-02-24T07:36:02.134Z,1004.37
2016-02-24T07:37:02.137Z,1004.32
2016-02-24T07:38:02.156Z,1004.31
2016-02-24T07:39:02.174Z,1004.34
2016-02-24T07:40:02.177Z,1004.38
2016-02-24T07:41:02.195Z,1004.38
2016-02-24T07:42:02.213Z,1004.33
2016-02-24T07:43:02.232Z,1004.36
2016-02-24T07:44:02.250Z,1004.4
2016-02-24T07:45:02.269Z,1004.39
2016-02-24T07:46:02.271Z,1004.41
2016-02-24T07:47:02.289Z,1004.38
2016-02-24T07:48:02.308Z,1004.38
2016-02-24T07:49:02.327Z,1004.42
2016-02-24T07:50:02.329Z,1004.48
2016-02-24T07:51:02.347Z,1004.48
2016-02-24T07:52:02.382Z,1004.47
2016-02-24T07:53:02.385Z,1004.45
2016-02-24T07:54:02.387Z,1004.47
2016-02-24T07:55:02.405Z,1004.42
2016-02-24T07:56:02.439Z,1004.45
2016-02-24T07:57:02.441Z,1004.42
2016-02-24T07:58:02.460Z,1004.52
2016-02-24T07:59:02.463Z,1004.49
2016-02-24T08:00:02.481Z,1004.46
2016-02-24T08:01:02.499Z,1004.49
2016-02-24T08:02:02.517Z,1004.47
2016-02-24T08:03:02.537Z,1004.47
2016-02-24T08:04:02.539Z,1004.49
2016-02-24T08:05:02.556Z,1004.47
2016-02-24T08:06:02.576Z,1004.43
2016-02-24T08:07:02.593Z,1004.45
2016-02-24T08:08:02.612Z,1004.44
2016-02-24T08:09:02.614Z,1004.41
2016-02-24T08:10:02.633Z,1004.43
2016-02-24T08:11:02.651Z,1004.41
2016-02-24T08:12:02.670Z,1004.48
2016-02-24T08:13:02.688Z,1004.44
2016-02-24T08:14:02.691Z,1004.42
2016-02-24T08:15:02.708Z,1004.44
2016-02-24T08:16:02.727Z,1004.4
2016-02-24T08:17:02.744Z,1004.46
2016-02-24T08:18:02.747Z,1004.4
2016-02-24T08:19:02.766Z,1004.41
2016-02-24T08:20:02.785Z,1004.38
2016-02-24T08:21:02.802Z,1004.4
2016-02-24T08:22:02.821Z,1004.39
2016-02-24T08:23:02.824Z,1004.4
2016-02-24T08:24:02.843Z,1004.41
2016-02-24T08:25:02.860Z,1004.36
2016-02-24T08:26:02.879Z,1004.38
2016-02-24T08:27:02.882Z,1004.41
2016-02-24T08:28:02.899Z,1004.42
2016-02-24T08:29:02.919Z,1004.43
2016-02-24T08:30:02.937Z,1004.42
2016-02-24T08:31:02.954Z,1004.39
2016-02-24T08:32:02.973Z,1004.44
2016-02-24T08:33:02.976Z,1004.47
2016-02-24T08:34:02.995Z,1004.44
2016-02-24T08:35:03.012Z,1004.44
2016-02-24T08:36:03.031Z,1004.47
2016-02-24T08:37:03.049Z,1004.4
2016-02-24T08:38:03.051Z,1004.42
2016-02-24T08:39:03.070Z,1004.44
2016-02-24T08:40:03.089Z,1004.42
2016-02-24T08:41:03.106Z,1004.41
2016-02-24T08:42:03.125Z,1004.43
2016-02-24T08:43:03.128Z,1004.41
2016-02-24T08:44:03.146Z,1004.4
2016-02-24T08:45:03.164Z,1004.43
2016-02-24T08:46:03.183Z,1004.38
2016-02-24T08:47:03.201Z,1004.44
2016-02-24T08:48:03.203Z,1004.42
2016-02-24T08:49:03.222Z,1004.43
2016-02-24T08:50:03.241Z,1004.42
2016-02-24T08:51:03.258Z,1004.44
2016-02-24T08:52:03.261Z,1004.4
2016-02-24T08:53:03.280Z,1004.45
2016-02-24T08:54:03.298Z,1004.42
2016-02-24T08:55:03.316Z,1004.43
2016-02-24T08:56:03.335Z,1004.44
2016-02-24T08:57:03.353Z,1004.43
2016-02-24T08:58:03.371Z,1004.47
2016-02-24T08:59:03.374Z,1004.4
2016-02-24T09:00:03.393Z,1004.41
2016-02-24T09:01:03.410Z,1004.43
2016-02-24T09:02:03.429Z,1004.42
2016-02-24T09:03:03.448Z,1004.43
2016-02-24T09:04:03.450Z,1004.41
2016-02-24T09:05:03.468Z,1004.4
2016-02-24T09:06:03.487Z,1004.42
2016-02-24T09:07:03.504Z,1004.44
2016-02-24T09:08:03.523Z,1004.44
2016-02-24T09:09:03.526Z,1004.4
2016-02-24T09:10:03.545Z,1004.42
2016-02-24T09:11:03.562Z,1004.36
2016-02-24T09:12:03.581Z,1004.38
2016-02-24T09:13:03.600Z,1004.44
2016-02-24T09:14:03.602Z,1004.37
2016-02-24T09:15:03.619Z,1004.37
2016-02-24T09:16:03.639Z,1004.36
2016-02-24T09:17:03.656Z,1004.42
2016-02-24T09:18:03.675Z,1004.4
2016-02-24T09:19:03.694Z,1004.39
2016-02-24T09:20:03.696Z,1004.37
2016-02-24T09:21:03.714Z,1004.34
2016-02-24T09:22:03.733Z,1004.37
2016-02-24T09:23:03.751Z,1004.38
2016-02-24T09:24:03.769Z,1004.38
2016-02-24T09:25:03.771Z,1004.38
2016-02-24T09:26:03.791Z,1004.35
2016-02-24T09:27:03.808Z,1004.45
2016-02-24T09:28:03.827Z,1004.38
2016-02-24T09:29:03.846Z,1004.42
2016-02-24T09:30:03.863Z,1004.41
2016-02-24T09:31:03.866Z,1004.39
2016-02-24T09:32:03.885Z,1004.35
2016-02-24T09:33:03.903Z,1004.35
2016-02-24T09:34:03.920Z,1004.36
2016-02-24T09:35:03.939Z,1004.41
2016-02-24T09:36:03.957Z,1004.37
2016-02-24T09:37:03.960Z,1004.36
2016-02-24T09:38:03.979Z,1004.32
2016-02-24T09:39:03.997Z,1004.32
2016-02-24T09:40:04.015Z,1004.37
2016-02-24T09:41:04.033Z,1004.34
2016-02-24T09:42:04.053Z,1004.3
2016-02-24T09:43:04.055Z,1004.3
2016-02-24T09:44:04.072Z,1004.37
2016-02-24T09:45:04.092Z,1004.32
2016-02-24T09:46:04.109Z,1004.33
2016-02-24T09:47:04.128Z,1004.42
2016-02-24T09:48:04.131Z,1004.27
2016-02-24T09:49:04.149Z,1004.29
2016-02-24T09:50:04.167Z,1004.31
2016-02-24T09:51:04.186Z,1004.27
2016-02-24T09:52:04.204Z,1004.3
2016-02-24T09:53:04.222Z,1004.34
2016-02-24T09:54:04.241Z,1004.28
2016-02-24T09:55:04.244Z,1004.35
2016-02-24T09:56:04.261Z,1004.31
2016-02-24T09:57:04.280Z,1004.3
2016-02-24T09:58:04.299Z,1004.28
2016-02-24T09:59:04.316Z,1004.24
2016-02-24T10:00:04.335Z,1004.19
2016-02-24T10:01:04.353Z,1004.18
2016-02-24T10:02:04.356Z,1004.2
2016-02-24T10:03:04.373Z,1004.2
2016-02-24T10:04:04.393Z,1004.29
2016-02-24T10:05:04.410Z,1004.23
2016-02-24T10:06:04.460Z,1004.21
2016-02-24T10:07:04.448Z,1004.19
2016-02-24T10:08:04.465Z,1004.18
2016-02-24T10:09:04.468Z,1004.2
2016-02-24T10:10:04.487Z,1004.21
2016-02-24T10:11:04.505Z,1004.2
2016-02-24T10:12:04.523Z,1004.21
2016-02-24T10:13:04.542Z,1004.24
2016-02-24T10:14:04.560Z,1004.2
2016-02-24T10:15:04.562Z,1004.2
2016-02-24T10:16:04.581Z,1004.17
2016-02-24T10:17:04.600Z,1004.2
2016-02-24T10:18:04.617Z,1004.15
2016-02-24T10:19:04.636Z,1004.24
2016-02-24T10:20:04.655Z,1004.19
2016-02-24T10:21:04.672Z,1004.19
2016-02-24T10:22:04.675Z,1004.2
2016-02-24T10:23:04.694Z,1004.15
2016-02-24T10:24:04.711Z,1004.25
2016-02-24T10:25:04.730Z,1004.2
2016-02-24T10:26:04.749Z,1004.21
2016-02-24T10:27:04.766Z,1004.19
2016-02-24T10:28:04.785Z,1004.19
2016-02-24T10:29:04.804Z,1004.25
2016-02-24T10:30:04.806Z,1004.22
2016-02-24T10:31:04.824Z,1004.27
2016-02-24T10:32:04.843Z,1004.19
2016-02-24T10:33:04.860Z,1004.15
2016-02-24T10:34:04.880Z,1004.15
2016-02-24T10:35:04.882Z,1004.25
2016-02-24T10:36:04.901Z,1004.2
2016-02-24T10:37:04.918Z,1004.15
2016-02-24T10:38:04.937Z,1004.19
2016-02-24T10:39:04.956Z,1004.11
2016-02-24T10:40:04.973Z,1004.23
2016-02-24T10:41:04.992Z,1004.32
2016-02-24T10:42:05.010Z,1004.13
2016-02-24T10:43:05.028Z,1004.12
2016-02-24T10:44:05.048Z,1004.21
2016-02-24T10:45:05.050Z,1004.16
2016-02-24T10:46:05.067Z,1004.2
2016-02-24T10:47:05.102Z,1004.16
2016-02-24T10:48:05.105Z,1004.13
2016-02-24T10:49:05.122Z,1004.11
2016-02-24T10:50:05.141Z,1004.13
2016-02-24T10:51:05.159Z,1004.12
2016-02-24T10:52:05.178Z,1004.2
2016-02-24T10:53:05.181Z,1004.15
2016-02-24T10:54:05.199Z,1004.1
2016-02-24T10:55:05.216Z,1004.19
2016-02-24T10:56:05.252Z,1004.14
2016-02-24T10:57:05.254Z,1004.17
2016-02-24T10:58:05.271Z,1004.15
2016-02-24T10:59:05.291Z,1004.13
2016-02-24T11:00:05.308Z,1004.13
2016-02-24T11:01:05.327Z,1004.12
2016-02-24T11:02:05.346Z,1004.04
2016-02-24T11:03:05.363Z,1004.19
2016-02-24T11:04:05.382Z,1004.1
2016-02-24T11:05:05.385Z,1004.1
2016-02-24T11:06:05.403Z,1004.15
2016-02-24T11:07:05.421Z,1004.16
2016-02-24T11:08:05.439Z,1004.11
2016-02-24T11:09:05.473Z,1004.11
2016-02-24T11:10:05.476Z,1004.11
2016-02-24T11:11:05.495Z,1004.11
2016-02-24T11:12:05.513Z,1004.18
2016-02-24T11:13:05.532Z,1004.1
2016-02-24T11:14:05.534Z,1004.11
2016-02-24T11:15:05.568Z,1004.09
2016-02-24T11:16:05.571Z,1004.07
2016-02-24T11:17:05.589Z,1004.03
2016-02-24T11:18:05.606Z,1004
2016-02-24T11:19:05.626Z,1003.93
2016-02-24T11:20:05.644Z,1003.95
2016-02-24T11:21:05.661Z,1003.92
2016-02-24T11:22:05.681Z,1003.92
2016-02-24T11:23:05.699Z,1003.92
2016-02-24T11:24:05.717Z,1003.96
2016-02-24T11:25:05.735Z,1003.91
2016-02-24T11:26:05.753Z,1003.89
2016-02-24T11:27:05.756Z,1003.96
2016-02-24T11:28:05.775Z,1003.9
2016-02-24T11:29:05.793Z,1003.86
2016-02-24T11:30:05.810Z,1003.85
2016-02-24T11:31:05.830Z,1003.83
2016-02-24T11:32:05.848Z,1003.79
2016-02-24T11:33:05.865Z,1003.76
2016-02-24T11:34:05.885Z,1003.75
2016-02-24T11:35:05.902Z,1003.75
2016-02-24T11:36:05.921Z,1003.77
2016-02-24T11:37:05.940Z,1003.72
2016-02-24T11:38:05.957Z,1003.77
2016-02-24T11:39:05.976Z,1003.74
2016-02-24T11:40:05.995Z,1003.76
2016-02-24T11:41:06.012Z,1003.75
2016-02-24T11:42:06.031Z,1003.74
2016-02-24T11:43:06.034Z,1003.69
2016-02-24T11:44:06.051Z,1003.65
2016-02-24T11:45:06.070Z,1003.69
2016-02-24T11:46:06.089Z,1003.74
2016-02-24T11:47:06.106Z,1003.67
2016-02-24T11:48:06.142Z,1003.74
2016-02-24T11:49:06.144Z,1003.7
2016-02-24T11:50:06.161Z,1003.77
2016-02-24T11:51:06.180Z,1003.74
2016-02-24T11:52:06.198Z,1003.72
2016-02-24T11:53:06.217Z,1003.71
2016-02-24T11:54:06.235Z,1003.73
2016-02-24T11:55:06.253Z,1003.78
2016-02-24T11:56:06.271Z,1003.69
2016-02-24T11:57:06.275Z,1003.72
2016-02-24T11:58:06.293Z,1003.72
2016-02-24T11:59:06.326Z,1003.72
2016-02-24T12:00:06.344Z,1003.74
2016-02-24T12:01:06.363Z,1003.76
2016-02-24T12:02:06.366Z,1003.7
2016-02-24T12:03:06.385Z,1003.74
2016-02-24T12:04:06.402Z,1003.72
2016-02-24T12:05:06.423Z,1003.65
2016-02-24T12:06:06.441Z,1003.69
2016-02-24T12:07:06.459Z,1003.66
2016-02-24T12:08:06.478Z,1003.62
2016-02-24T12:09:06.496Z,1003.61